sensor_id;sensor_type;location;lat;lon;timestamp;P1;durP1;ratioP1;P2;durP2;ratioP2
36839;SDS011;24406;51.640;9.566;2022-07-06T00:01:05;3.58;;;2.33;;
36839;SDS011;24406;51.640;9.566;2022-07-06T00:06:07;3.60;;;2.10;;
36839;SDS011;24406;51.640;9.566;2022-07-06T00:11:10;2.03;;;1.77;;
36839;SDS011;24406;51.640;9.566;2022-07-06T00:16:11;3.33;;;2.17;;
36839;SDS011;24406;51.640;9.566;2022-07-06T00:21:13;4.38;;;2.33;;
36839;SDS011;24406;51.640;9.566;2022-07-06T00:26:16;4.22;;;2.75;;
36839;SDS011;24406;51.640;9.566;2022-07-06T00:31:17;5.13;;;2.33;;
36839;SDS011;24406;51.640;9.566;2022-07-06T00:36:18;3.05;;;2.40;;
36839;SDS011;24406;51.640;9.566;2022-07-06T00:41:21;3.63;;;2.60;;
36839;SDS011;24406;51.640;9.566;2022-07-06T00:46:25;2.60;;;2.40;;
36839;SDS011;24406;51.640;9.566;2022-07-06T00:51:29;5.88;;;3.15;;
36839;SDS011;24406;51.640;9.566;2022-07-06T00:56:33;3.70;;;3.30;;
36839;SDS011;24406;51.640;9.566;2022-07-06T01:01:35;4.57;;;3.10;;
36839;SDS011;24406;51.640;9.566;2022-07-06T01:06:37;4.15;;;2.97;;
36839;SDS011;24406;51.640;9.566;2022-07-06T01:11:39;5.25;;;3.20;;
36839;SDS011;24406;51.640;9.566;2022-07-06T01:16:41;5.25;;;2.50;;
36839;SDS011;24406;51.640;9.566;2022-07-06T01:21:44;4.10;;;2.85;;
36839;SDS011;24406;51.640;9.566;2022-07-06T01:26:45;5.05;;;3.35;;
36839;SDS011;24406;51.640;9.566;2022-07-06T01:31:47;3.00;;;2.70;;
36839;SDS011;24406;51.640;9.566;2022-07-06T01:36:51;2.85;;;2.47;;
36839;SDS011;24406;51.640;9.566;2022-07-06T01:41:53;7.55;;;2.53;;
36839;SDS011;24406;51.640;9.566;2022-07-06T01:46:54;3.05;;;2.17;;
36839;SDS011;24406;51.640;9.566;2022-07-06T01:51:57;2.50;;;2.28;;
36839;SDS011;24406;51.640;9.566;2022-07-06T01:56:58;4.45;;;2.58;;
36839;SDS011;24406;51.640;9.566;2022-07-06T02:02:00;2.38;;;2.17;;
36839;SDS011;24406;51.640;9.566;2022-07-06T02:07:03;4.13;;;2.53;;
36839;SDS011;24406;51.640;9.566;2022-07-06T02:12:05;2.47;;;1.80;;
36839;SDS011;24406;51.640;9.566;2022-07-06T02:17:07;2.10;;;1.90;;
36839;SDS011;24406;51.640;9.566;2022-07-06T02:22:10;2.15;;;1.95;;
36839;SDS011;24406;51.640;9.566;2022-07-06T02:27:11;2.47;;;1.90;;
36839;SDS011;24406;51.640;9.566;2022-07-06T02:32:13;3.00;;;2.08;;
36839;SDS011;24406;51.640;9.566;2022-07-06T02:37:16;6.38;;;2.63;;
36839;SDS011;24406;51.640;9.566;2022-07-06T02:42:17;4.72;;;2.60;;
36839;SDS011;24406;51.640;9.566;2022-07-06T02:47:19;3.58;;;2.55;;
36839;SDS011;24406;51.640;9.566;2022-07-06T02:52:22;4.20;;;2.65;;
36839;SDS011;24406;51.640;9.566;2022-07-06T02:57:24;5.07;;;2.40;;
36839;SDS011;24406;51.640;9.566;2022-07-06T03:02:26;2.95;;;2.30;;
36839;SDS011;24406;51.640;9.566;2022-07-06T03:07:29;6.15;;;2.63;;
36839;SDS011;24406;51.640;9.566;2022-07-06T03:12:31;4.03;;;3.30;;
36839;SDS011;24406;51.640;9.566;2022-07-06T03:17:32;4.30;;;2.97;;
36839;SDS011;24406;51.640;9.566;2022-07-06T03:22:35;7.85;;;2.85;;
36839;SDS011;24406;51.640;9.566;2022-07-06T03:27:38;5.40;;;2.97;;
36839;SDS011;24406;51.640;9.566;2022-07-06T03:32:39;7.93;;;3.88;;
36839;SDS011;24406;51.640;9.566;2022-07-06T03:37:42;10.55;;;3.80;;
36839;SDS011;24406;51.640;9.566;2022-07-06T03:42:44;4.90;;;2.90;;
36839;SDS011;24406;51.640;9.566;2022-07-06T03:47:46;2.53;;;2.30;;
36839;SDS011;24406;51.640;9.566;2022-07-06T03:52:49;6.60;;;2.72;;
36839;SDS011;24406;51.640;9.566;2022-07-06T03:57:51;5.78;;;3.65;;
36839;SDS011;24406;51.640;9.566;2022-07-06T04:02:56;7.70;;;4.00;;
36839;SDS011;24406;51.640;9.566;2022-07-06T04:08:03;6.00;;;3.53;;
36839;SDS011;24406;51.640;9.566;2022-07-06T04:13:20;4.70;;;3.17;;
36839;SDS011;24406;51.640;9.566;2022-07-06T04:18:22;4.43;;;3.03;;
36839;SDS011;24406;51.640;9.566;2022-07-06T04:23:28;4.32;;;3.00;;
36839;SDS011;24406;51.640;9.566;2022-07-06T04:28:31;4.97;;;2.88;;
36839;SDS011;24406;51.640;9.566;2022-07-06T04:33:33;9.38;;;3.10;;
36839;SDS011;24406;51.640;9.566;2022-07-06T04:38:36;5.28;;;2.25;;
36839;SDS011;24406;51.640;9.566;2022-07-06T04:43:40;4.38;;;2.72;;
36839;SDS011;24406;51.640;9.566;2022-07-06T04:48:44;4.15;;;2.90;;
36839;SDS011;24406;51.640;9.566;2022-07-06T04:53:53;5.15;;;3.25;;
36839;SDS011;24406;51.640;9.566;2022-07-06T04:58:55;5.20;;;2.47;;
36839;SDS011;24406;51.640;9.566;2022-07-06T05:03:58;5.63;;;2.65;;
36839;SDS011;24406;51.640;9.566;2022-07-06T05:09:01;3.42;;;2.42;;
36839;SDS011;24406;51.640;9.566;2022-07-06T05:14:05;8.10;;;2.80;;
36839;SDS011;24406;51.640;9.566;2022-07-06T05:19:07;7.47;;;2.83;;
36839;SDS011;24406;51.640;9.566;2022-07-06T05:24:10;4.35;;;2.22;;
36839;SDS011;24406;51.640;9.566;2022-07-06T05:29:11;3.67;;;2.08;;
36839;SDS011;24406;51.640;9.566;2022-07-06T05:34:13;3.67;;;2.22;;
36839;SDS011;24406;51.640;9.566;2022-07-06T05:39:16;2.63;;;1.98;;
36839;SDS011;24406;51.640;9.566;2022-07-06T05:44:21;4.28;;;2.00;;
36839;SDS011;24406;51.640;9.566;2022-07-06T05:49:23;4.22;;;2.05;;
36839;SDS011;24406;51.640;9.566;2022-07-06T05:54:44;4.95;;;1.70;;
36839;SDS011;24406;51.640;9.566;2022-07-06T05:59:46;6.38;;;2.20;;
36839;SDS011;24406;51.640;9.566;2022-07-06T06:04:47;4.53;;;2.08;;
36839;SDS011;24406;51.640;9.566;2022-07-06T06:09:50;5.30;;;1.65;;
36839;SDS011;24406;51.640;9.566;2022-07-06T06:14:51;3.70;;;1.80;;
36839;SDS011;24406;51.640;9.566;2022-07-06T06:19:53;4.57;;;1.83;;
36839;SDS011;24406;51.640;9.566;2022-07-06T06:24:56;4.78;;;1.80;;
36839;SDS011;24406;51.640;9.566;2022-07-06T06:29:57;2.13;;;1.63;;
36839;SDS011;24406;51.640;9.566;2022-07-06T06:34:58;2.30;;;1.33;;
36839;SDS011;24406;51.640;9.566;2022-07-06T06:40:02;1.23;;;1.13;;
36839;SDS011;24406;51.640;9.566;2022-07-06T06:45:04;4.47;;;1.45;;
36839;SDS011;24406;51.640;9.566;2022-07-06T06:50:07;4.18;;;1.40;;
36839;SDS011;24406;51.640;9.566;2022-07-06T06:55:10;4.35;;;1.42;;
36839;SDS011;24406;51.640;9.566;2022-07-06T07:00:11;2.97;;;1.60;;
36839;SDS011;24406;51.640;9.566;2022-07-06T07:05:13;4.72;;;1.63;;
36839;SDS011;24406;51.640;9.566;2022-07-06T07:10:16;5.72;;;1.83;;
36839;SDS011;24406;51.640;9.566;2022-07-06T07:15:18;5.45;;;2.05;;
36839;SDS011;24406;51.640;9.566;2022-07-06T07:20:19;4.63;;;2.13;;
36839;SDS011;24406;51.640;9.566;2022-07-06T07:25:22;6.35;;;2.20;;
36839;SDS011;24406;51.640;9.566;2022-07-06T07:30:23;2.80;;;1.60;;
36839;SDS011;24406;51.640;9.566;2022-07-06T07:35:25;3.65;;;1.70;;
36839;SDS011;24406;51.640;9.566;2022-07-06T07:40:30;4.43;;;1.88;;
36839;SDS011;24406;51.640;9.566;2022-07-06T07:45:33;3.10;;;1.75;;
36839;SDS011;24406;51.640;9.566;2022-07-06T07:50:35;4.22;;;1.85;;
36839;SDS011;24406;51.640;9.566;2022-07-06T07:55:37;3.80;;;1.45;;
36839;SDS011;24406;51.640;9.566;2022-07-06T08:00:39;2.58;;;1.48;;
36839;SDS011;24406;51.640;9.566;2022-07-06T08:05:40;3.67;;;1.20;;
36839;SDS011;24406;51.640;9.566;2022-07-06T08:10:43;4.03;;;1.30;;
36839;SDS011;24406;51.640;9.566;2022-07-06T08:15:45;4.47;;;1.33;;
36839;SDS011;24406;51.640;9.566;2022-07-06T08:20:46;3.92;;;1.20;;
36839;SDS011;24406;51.640;9.566;2022-07-06T08:25:49;2.38;;;1.20;;
36839;SDS011;24406;51.640;9.566;2022-07-06T08:30:50;1.90;;;1.15;;
36839;SDS011;24406;51.640;9.566;2022-07-06T08:35:55;2.97;;;1.30;;
36839;SDS011;24406;51.640;9.566;2022-07-06T08:41:06;4.90;;;1.20;;
36839;SDS011;24406;51.640;9.566;2022-07-06T08:46:09;3.13;;;1.27;;
36839;SDS011;24406;51.640;9.566;2022-07-06T08:51:14;3.92;;;1.35;;
36839;SDS011;24406;51.640;9.566;2022-07-06T08:56:17;4.95;;;1.30;;
36839;SDS011;24406;51.640;9.566;2022-07-06T09:01:19;2.60;;;1.20;;
36839;SDS011;24406;51.640;9.566;2022-07-06T09:06:22;2.15;;;1.10;;
36839;SDS011;24406;51.640;9.566;2022-07-06T09:11:26;1.92;;;1.30;;
36839;SDS011;24406;51.640;9.566;2022-07-06T09:16:28;4.90;;;1.20;;
36839;SDS011;24406;51.640;9.566;2022-07-06T09:21:32;1.73;;;1.00;;
36839;SDS011;24406;51.640;9.566;2022-07-06T09:26:37;3.28;;;1.08;;
36839;SDS011;24406;51.640;9.566;2022-07-06T09:31:39;4.97;;;1.52;;
36839;SDS011;24406;51.640;9.566;2022-07-06T09:36:42;3.17;;;1.25;;
36839;SDS011;24406;51.640;9.566;2022-07-06T09:41:45;3.88;;;1.25;;
36839;SDS011;24406;51.640;9.566;2022-07-06T09:46:47;2.78;;;1.00;;
36839;SDS011;24406;51.640;9.566;2022-07-06T09:51:50;5.47;;;1.25;;
36839;SDS011;24406;51.640;9.566;2022-07-06T09:56:54;3.85;;;0.95;;
36839;SDS011;24406;51.640;9.566;2022-07-06T10:01:57;2.83;;;1.00;;
36839;SDS011;24406;51.640;9.566;2022-07-06T10:06:59;4.32;;;1.00;;
36839;SDS011;24406;51.640;9.566;2022-07-06T10:12:03;2.45;;;1.20;;
36839;SDS011;24406;51.640;9.566;2022-07-06T10:17:06;6.35;;;1.20;;
36839;SDS011;24406;51.640;9.566;2022-07-06T10:22:08;1.95;;;0.90;;
36839;SDS011;24406;51.640;9.566;2022-07-06T10:27:10;6.78;;;1.67;;
36839;SDS011;24406;51.640;9.566;2022-07-06T10:32:12;2.35;;;0.80;;
36839;SDS011;24406;51.640;9.566;2022-07-06T10:37:21;4.82;;;1.00;;
36839;SDS011;24406;51.640;9.566;2022-07-06T10:42:40;1.65;;;0.85;;
36839;SDS011;24406;51.640;9.566;2022-07-06T10:47:42;5.40;;;1.13;;
36839;SDS011;24406;51.640;9.566;2022-07-06T10:52:50;4.05;;;0.75;;
36839;SDS011;24406;51.640;9.566;2022-07-06T10:57:54;2.47;;;1.08;;
36839;SDS011;24406;51.640;9.566;2022-07-06T11:02:55;1.80;;;0.63;;
36839;SDS011;24406;51.640;9.566;2022-07-06T11:07:56;1.70;;;0.90;;
36839;SDS011;24406;51.640;9.566;2022-07-06T11:13:03;1.67;;;0.95;;
36839;SDS011;24406;51.640;9.566;2022-07-06T11:18:10;2.05;;;0.90;;
36839;SDS011;24406;51.640;9.566;2022-07-06T11:23:12;1.08;;;0.68;;
36839;SDS011;24406;51.640;9.566;2022-07-06T11:28:17;0.95;;;0.70;;
36839;SDS011;24406;51.640;9.566;2022-07-06T11:33:27;2.40;;;0.70;;
36839;SDS011;24406;51.640;9.566;2022-07-06T11:38:29;3.00;;;0.70;;
36839;SDS011;24406;51.640;9.566;2022-07-06T11:43:32;4.30;;;1.10;;
36839;SDS011;24406;51.640;9.566;2022-07-06T11:48:33;1.50;;;0.60;;
36839;SDS011;24406;51.640;9.566;2022-07-06T11:53:34;2.85;;;1.00;;
36839;SDS011;24406;51.640;9.566;2022-07-06T11:58:38;1.63;;;0.80;;
36839;SDS011;24406;51.640;9.566;2022-07-06T12:03:40;1.50;;;0.90;;
36839;SDS011;24406;51.640;9.566;2022-07-06T12:08:42;3.78;;;0.80;;
36839;SDS011;24406;51.640;9.566;2022-07-06T12:13:46;2.22;;;1.17;;
36839;SDS011;24406;51.640;9.566;2022-07-06T12:18:48;3.35;;;0.70;;
36839;SDS011;24406;51.640;9.566;2022-07-06T12:23:50;2.17;;;0.77;;
36839;SDS011;24406;51.640;9.566;2022-07-06T12:29:00;4.93;;;1.10;;
36839;SDS011;24406;51.640;9.566;2022-07-06T12:34:03;1.10;;;0.60;;
36839;SDS011;24406;51.640;9.566;2022-07-06T12:39:09;2.40;;;0.82;;
36839;SDS011;24406;51.640;9.566;2022-07-06T12:44:13;3.25;;;0.70;;
36839;SDS011;24406;51.640;9.566;2022-07-06T12:49:18;2.75;;;0.70;;
36839;SDS011;24406;51.640;9.566;2022-07-06T12:54:21;3.13;;;1.20;;
36839;SDS011;24406;51.640;9.566;2022-07-06T12:59:24;1.80;;;0.80;;
36839;SDS011;24406;51.640;9.566;2022-07-06T13:04:26;3.40;;;1.27;;
36839;SDS011;24406;51.640;9.566;2022-07-06T13:09:29;1.85;;;0.82;;
36839;SDS011;24406;51.640;9.566;2022-07-06T13:14:32;1.50;;;0.90;;
36839;SDS011;24406;51.640;9.566;2022-07-06T13:19:33;2.78;;;0.80;;
36839;SDS011;24406;51.640;9.566;2022-07-06T13:24:35;2.35;;;0.90;;
36839;SDS011;24406;51.640;9.566;2022-07-06T13:29:38;3.63;;;0.93;;
36839;SDS011;24406;51.640;9.566;2022-07-06T13:34:39;4.47;;;1.02;;
36839;SDS011;24406;51.640;9.566;2022-07-06T13:39:40;2.67;;;0.98;;
36839;SDS011;24406;51.640;9.566;2022-07-06T13:44:43;3.65;;;1.13;;
36839;SDS011;24406;51.640;9.566;2022-07-06T13:49:45;2.28;;;0.80;;
36839;SDS011;24406;51.640;9.566;2022-07-06T13:54:47;1.75;;;0.63;;
36839;SDS011;24406;51.640;9.566;2022-07-06T13:59:50;5.75;;;0.82;;
36839;SDS011;24406;51.640;9.566;2022-07-06T14:04:51;4.22;;;1.02;;
36839;SDS011;24406;51.640;9.566;2022-07-06T14:09:53;2.78;;;1.10;;
36839;SDS011;24406;51.640;9.566;2022-07-06T14:14:55;4.70;;;1.38;;
36839;SDS011;24406;51.640;9.566;2022-07-06T14:19:57;2.22;;;0.90;;
36839;SDS011;24406;51.640;9.566;2022-07-06T14:24:58;6.60;;;1.40;;
36839;SDS011;24406;51.640;9.566;2022-07-06T14:30:02;5.32;;;0.98;;
36839;SDS011;24406;51.640;9.566;2022-07-06T14:35:04;3.35;;;0.88;;
36839;SDS011;24406;51.640;9.566;2022-07-06T14:40:06;3.75;;;0.82;;
36839;SDS011;24406;51.640;9.566;2022-07-06T14:45:10;5.57;;;1.20;;
36839;SDS011;24406;51.640;9.566;2022-07-06T14:50:12;3.92;;;1.00;;
36839;SDS011;24406;51.640;9.566;2022-07-06T14:55:13;4.55;;;1.50;;
36839;SDS011;24406;51.640;9.566;2022-07-06T15:00:16;4.57;;;0.90;;
36839;SDS011;24406;51.640;9.566;2022-07-06T15:05:18;4.43;;;0.90;;
36839;SDS011;24406;51.640;9.566;2022-07-06T15:10:19;7.35;;;1.30;;
36839;SDS011;24406;51.640;9.566;2022-07-06T15:15:22;2.63;;;1.17;;
36839;SDS011;24406;51.640;9.566;2022-07-06T15:20:23;3.47;;;1.35;;
36839;SDS011;24406;51.640;9.566;2022-07-06T15:25:25;2.58;;;0.70;;
36839;SDS011;24406;51.640;9.566;2022-07-06T15:30:27;2.75;;;1.05;;
36839;SDS011;24406;51.640;9.566;2022-07-06T15:35:32;1.67;;;0.82;;
36839;SDS011;24406;51.640;9.566;2022-07-06T15:40:34;4.05;;;1.25;;
36839;SDS011;24406;51.640;9.566;2022-07-06T15:45:41;3.22;;;1.00;;
36839;SDS011;24406;51.640;9.566;2022-07-06T15:50:42;2.13;;;1.02;;
36839;SDS011;24406;51.640;9.566;2022-07-06T15:55:44;1.98;;;1.08;;
36839;SDS011;24406;51.640;9.566;2022-07-06T16:00:47;2.13;;;0.90;;
36839;SDS011;24406;51.640;9.566;2022-07-06T16:05:48;2.65;;;1.02;;
36839;SDS011;24406;51.640;9.566;2022-07-06T16:10:50;3.42;;;1.30;;
36839;SDS011;24406;51.640;9.566;2022-07-06T16:15:53;3.67;;;1.25;;
36839;SDS011;24406;51.640;9.566;2022-07-06T16:20:54;3.58;;;1.00;;
36839;SDS011;24406;51.640;9.566;2022-07-06T16:25:56;1.60;;;0.73;;
36839;SDS011;24406;51.640;9.566;2022-07-06T16:30:58;3.55;;;0.73;;
36839;SDS011;24406;51.640;9.566;2022-07-06T16:36:00;3.95;;;0.70;;
36839;SDS011;24406;51.640;9.566;2022-07-06T16:41:03;2.25;;;0.90;;
36839;SDS011;24406;51.640;9.566;2022-07-06T16:46:05;1.65;;;0.95;;
36839;SDS011;24406;51.640;9.566;2022-07-06T16:51:07;1.35;;;0.50;;
36839;SDS011;24406;51.640;9.566;2022-07-06T16:56:08;2.95;;;1.00;;
36839;SDS011;24406;51.640;9.566;2022-07-06T17:01:11;1.40;;;0.80;;
36839;SDS011;24406;51.640;9.566;2022-07-06T17:06:12;2.38;;;0.80;;
36839;SDS011;24406;51.640;9.566;2022-07-06T17:11:14;4.82;;;1.00;;
36839;SDS011;24406;51.640;9.566;2022-07-06T17:16:18;1.30;;;0.70;;
36839;SDS011;24406;51.640;9.566;2022-07-06T17:21:19;2.45;;;0.80;;
36839;SDS011;24406;51.640;9.566;2022-07-06T17:26:21;2.80;;;0.73;;
36839;SDS011;24406;51.640;9.566;2022-07-06T17:31:24;3.20;;;0.70;;
36839;SDS011;24406;51.640;9.566;2022-07-06T17:36:25;1.65;;;0.80;;
36839;SDS011;24406;51.640;9.566;2022-07-06T17:41:27;3.22;;;0.82;;
36839;SDS011;24406;51.640;9.566;2022-07-06T17:46:30;1.63;;;0.70;;
36839;SDS011;24406;51.640;9.566;2022-07-06T17:51:31;4.50;;;0.90;;
36839;SDS011;24406;51.640;9.566;2022-07-06T17:56:32;2.70;;;0.90;;
36839;SDS011;24406;51.640;9.566;2022-07-06T18:01:35;1.58;;;0.80;;
36839;SDS011;24406;51.640;9.566;2022-07-06T18:06:37;4.18;;;0.88;;
36839;SDS011;24406;51.640;9.566;2022-07-06T18:11:38;0.98;;;0.70;;
36839;SDS011;24406;51.640;9.566;2022-07-06T18:16:41;4.00;;;0.90;;
36839;SDS011;24406;51.640;9.566;2022-07-06T18:21:44;2.17;;;0.60;;
36839;SDS011;24406;51.640;9.566;2022-07-06T18:26:46;3.03;;;0.77;;
36839;SDS011;24406;51.640;9.566;2022-07-06T18:31:50;3.63;;;1.13;;
36839;SDS011;24406;51.640;9.566;2022-07-06T18:36:52;4.22;;;0.75;;
36839;SDS011;24406;51.640;9.566;2022-07-06T18:41:53;3.08;;;0.80;;
36839;SDS011;24406;51.640;9.566;2022-07-06T18:46:56;1.42;;;1.10;;
36839;SDS011;24406;51.640;9.566;2022-07-06T18:51:57;8.93;;;1.17;;
36839;SDS011;24406;51.640;9.566;2022-07-06T18:56:59;1.90;;;0.60;;
36839;SDS011;24406;51.640;9.566;2022-07-06T19:02:02;3.35;;;0.80;;
36839;SDS011;24406;51.640;9.566;2022-07-06T19:07:03;3.22;;;0.90;;
36839;SDS011;24406;51.640;9.566;2022-07-06T19:12:05;0.82;;;0.75;;
36839;SDS011;24406;51.640;9.566;2022-07-06T19:17:08;1.65;;;0.73;;
36839;SDS011;24406;51.640;9.566;2022-07-06T19:22:10;1.33;;;0.77;;
36839;SDS011;24406;51.640;9.566;2022-07-06T19:27:11;0.98;;;0.65;;
36839;SDS011;24406;51.640;9.566;2022-07-06T19:32:14;1.60;;;0.70;;
36839;SDS011;24406;51.640;9.566;2022-07-06T19:37:16;5.40;;;1.15;;
36839;SDS011;24406;51.640;9.566;2022-07-06T19:42:17;2.00;;;0.98;;
36839;SDS011;24406;51.640;9.566;2022-07-06T19:47:20;5.55;;;0.80;;
36839;SDS011;24406;51.640;9.566;2022-07-06T19:52:22;2.50;;;1.00;;
36839;SDS011;24406;51.640;9.566;2022-07-06T19:57:23;0.80;;;0.70;;
36839;SDS011;24406;51.640;9.566;2022-07-06T20:02:26;3.22;;;0.90;;
36839;SDS011;24406;51.640;9.566;2022-07-06T20:07:27;3.47;;;1.10;;
36839;SDS011;24406;51.640;9.566;2022-07-06T20:12:29;2.13;;;0.80;;
36839;SDS011;24406;51.640;9.566;2022-07-06T20:17:32;1.90;;;0.75;;
36839;SDS011;24406;51.640;9.566;2022-07-06T20:22:33;3.22;;;1.05;;
36839;SDS011;24406;51.640;9.566;2022-07-06T20:27:35;2.25;;;0.88;;
36839;SDS011;24406;51.640;9.566;2022-07-06T20:32:37;2.70;;;1.17;;
36839;SDS011;24406;51.640;9.566;2022-07-06T20:37:40;4.18;;;0.77;;
36839;SDS011;24406;51.640;9.566;2022-07-06T20:42:42;1.92;;;0.90;;
36839;SDS011;24406;51.640;9.566;2022-07-06T20:47:44;2.00;;;0.90;;
36839;SDS011;24406;51.640;9.566;2022-07-06T20:52:46;1.65;;;0.80;;
36839;SDS011;24406;51.640;9.566;2022-07-06T20:57:47;2.25;;;1.10;;
36839;SDS011;24406;51.640;9.566;2022-07-06T21:02:50;5.97;;;1.05;;
36839;SDS011;24406;51.640;9.566;2022-07-06T21:07:52;10.85;;;1.30;;
36839;SDS011;24406;51.640;9.566;2022-07-06T21:12:53;1.25;;;0.90;;
36839;SDS011;24406;51.640;9.566;2022-07-06T21:17:56;0.82;;;0.80;;
36839;SDS011;24406;51.640;9.566;2022-07-06T21:22:58;1.77;;;1.00;;
36839;SDS011;24406;51.640;9.566;2022-07-06T21:27:59;2.33;;;0.90;;
36839;SDS011;24406;51.640;9.566;2022-07-06T21:33:02;3.13;;;1.13;;
36839;SDS011;24406;51.640;9.566;2022-07-06T21:38:03;1.65;;;0.90;;
36839;SDS011;24406;51.640;9.566;2022-07-06T21:43:05;1.23;;;0.85;;
36839;SDS011;24406;51.640;9.566;2022-07-06T21:48:11;3.10;;;1.13;;
36839;SDS011;24406;51.640;9.566;2022-07-06T21:53:12;3.10;;;1.27;;
36839;SDS011;24406;51.640;9.566;2022-07-06T21:58:14;3.72;;;1.00;;
36839;SDS011;24406;51.640;9.566;2022-07-06T22:03:16;2.85;;;1.50;;
36839;SDS011;24406;51.640;9.566;2022-07-06T22:08:18;2.90;;;1.35;;
36839;SDS011;24406;51.640;9.566;2022-07-06T22:13:19;2.28;;;1.33;;
36839;SDS011;24406;51.640;9.566;2022-07-06T22:18:48;1.73;;;1.30;;
36839;SDS011;24406;51.640;9.566;2022-07-06T22:23:50;1.33;;;1.20;;
36839;SDS011;24406;51.640;9.566;2022-07-06T22:28:52;3.50;;;1.20;;
36839;SDS011;24406;51.640;9.566;2022-07-06T22:33:54;6.53;;;1.40;;
36839;SDS011;24406;51.640;9.566;2022-07-06T22:38:56;2.03;;;1.50;;
36839;SDS011;24406;51.640;9.566;2022-07-06T22:43:57;4.75;;;1.67;;
36839;SDS011;24406;51.640;9.566;2022-07-06T22:49:00;2.65;;;1.48;;
36839;SDS011;24406;51.640;9.566;2022-07-06T22:54:02;1.63;;;1.40;;
36839;SDS011;24406;51.640;9.566;2022-07-06T22:59:03;1.55;;;1.33;;
36839;SDS011;24406;51.640;9.566;2022-07-06T23:04:06;2.85;;;1.48;;
36839;SDS011;24406;51.640;9.566;2022-07-06T23:09:07;1.90;;;1.70;;
36839;SDS011;24406;51.640;9.566;2022-07-06T23:14:09;3.28;;;1.80;;
36839;SDS011;24406;51.640;9.566;2022-07-06T23:19:11;3.33;;;2.00;;
36839;SDS011;24406;51.640;9.566;2022-07-06T23:24:13;4.10;;;2.10;;
36839;SDS011;24406;51.640;9.566;2022-07-06T23:29:14;5.70;;;2.10;;
36839;SDS011;24406;51.640;9.566;2022-07-06T23:34:17;4.22;;;2.50;;
36839;SDS011;24406;51.640;9.566;2022-07-06T23:39:18;4.05;;;2.10;;
36839;SDS011;24406;51.640;9.566;2022-07-06T23:44:20;11.55;;;2.85;;
36839;SDS011;24406;51.640;9.566;2022-07-06T23:49:23;3.28;;;2.05;;
36839;SDS011;24406;51.640;9.566;2022-07-06T23:54:24;4.97;;;2.47;;
36839;SDS011;24406;51.640;9.566;2022-07-06T23:59:26;8.45;;;2.88;;
